sensor_id;sensor_type;location;lat;lon;timestamp;pressure;altitude;pressure_sealevel;temperature;humidity
58385;BME280;44185;47.844;8.966;2022-09-09T00:00:06;95954.88;;;10.80;100.00
58385;BME280;44185;47.844;8.966;2022-09-09T00:02:31;95956.53;;;10.81;100.00
58385;BME280;44185;47.844;8.966;2022-09-09T00:05:04;95961.69;;;10.73;100.00
58385;BME280;44185;47.844;8.966;2022-09-09T00:07:41;95958.63;;;10.77;100.00
58385;BME280;44185;47.844;8.966;2022-09-09T00:10:17;95949.44;;;10.72;100.00
58385;BME280;44185;47.844;8.966;2022-09-09T00:12:52;95950.84;;;10.66;100.00
58385;BME280;44185;47.844;8.966;2022-09-09T00:15:22;95949.72;;;10.59;100.00
58385;BME280;44185;47.844;8.966;2022-09-09T00:17:53;95952.78;;;10.54;100.00
58385;BME280;44185;47.844;8.966;2022-09-09T00:20:28;95952.66;;;10.55;100.00
58385;BME280;44185;47.844;8.966;2022-09-09T00:23:00;95960.69;;;10.44;100.00
58385;BME280;44185;47.844;8.966;2022-09-09T00:25:34;95949.31;;;10.53;100.00
58385;BME280;44185;47.844;8.966;2022-09-09T00:28:02;95951.13;;;10.53;100.00
58385;BME280;44185;47.844;8.966;2022-09-09T00:30:34;95947.75;;;10.71;100.00
58385;BME280;44185;47.844;8.966;2022-09-09T00:33:01;95960.59;;;10.65;100.00
58385;BME280;44185;47.844;8.966;2022-09-09T00:35:34;95954.31;;;10.66;100.00
58385;BME280;44185;47.844;8.966;2022-09-09T00:38:09;95955.44;;;10.64;100.00
58385;BME280;44185;47.844;8.966;2022-09-09T00:40:39;95960.03;;;10.52;100.00
58385;BME280;44185;47.844;8.966;2022-09-09T00:48:54;95941.50;;;10.62;100.00
58385;BME280;44185;47.844;8.966;2022-09-09T00:51:30;95947.22;;;10.57;100.00
58385;BME280;44185;47.844;8.966;2022-09-09T00:54:19;95948.59;;;10.51;100.00
58385;BME280;44185;47.844;8.966;2022-09-09T00:56:52;95946.19;;;10.38;100.00
58385;BME280;44185;47.844;8.966;2022-09-09T00:59:28;95948.56;;;10.41;100.00
58385;BME280;44185;47.844;8.966;2022-09-09T01:01:58;95953.03;;;10.51;100.00
58385;BME280;44185;47.844;8.966;2022-09-09T01:04:29;95956.13;;;10.66;100.00
58385;BME280;44185;47.844;8.966;2022-09-09T01:07:05;95952.63;;;10.65;100.00
58385;BME280;44185;47.844;8.966;2022-09-09T01:09:38;95945.81;;;10.63;100.00
58385;BME280;44185;47.844;8.966;2022-09-09T01:12:14;95935.66;;;10.68;100.00
58385;BME280;44185;47.844;8.966;2022-09-09T01:14:44;95928.13;;;10.63;100.00
58385;BME280;44185;47.844;8.966;2022-09-09T01:17:15;95934.13;;;10.65;100.00
58385;BME280;44185;47.844;8.966;2022-09-09T01:19:52;95938.97;;;10.50;100.00
58385;BME280;44185;47.844;8.966;2022-09-09T01:22:28;95936.63;;;10.57;100.00
58385;BME280;44185;47.844;8.966;2022-09-09T01:25:25;95933.41;;;10.73;100.00
58385;BME280;44185;47.844;8.966;2022-09-09T01:27:56;95939.00;;;10.80;100.00
58385;BME280;44185;47.844;8.966;2022-09-09T01:30:23;95941.66;;;10.80;100.00
58385;BME280;44185;47.844;8.966;2022-09-09T01:32:50;95939.81;;;10.81;100.00
58385;BME280;44185;47.844;8.966;2022-09-09T01:35:23;95932.28;;;10.76;100.00
58385;BME280;44185;47.844;8.966;2022-09-09T01:37:52;95941.06;;;10.76;100.00
58385;BME280;44185;47.844;8.966;2022-09-09T01:40:18;95947.50;;;10.74;100.00
58385;BME280;44185;47.844;8.966;2022-09-09T01:42:43;95953.44;;;10.86;100.00
58385;BME280;44185;47.844;8.966;2022-09-09T01:45:10;95950.22;;;11.02;100.00
58385;BME280;44185;47.844;8.966;2022-09-09T01:47:36;95942.56;;;10.99;100.00
58385;BME280;44185;47.844;8.966;2022-09-09T01:50:02;95936.03;;;11.03;100.00
58385;BME280;44185;47.844;8.966;2022-09-09T01:52:28;95941.31;;;11.03;100.00
58385;BME280;44185;47.844;8.966;2022-09-09T01:54:54;95933.22;;;11.05;100.00
58385;BME280;44185;47.844;8.966;2022-09-09T01:57:23;95923.03;;;11.10;100.00
58385;BME280;44185;47.844;8.966;2022-09-09T02:00:00;95921.66;;;11.06;100.00
58385;BME280;44185;47.844;8.966;2022-09-09T02:02:32;95937.56;;;11.06;100.00
58385;BME280;44185;47.844;8.966;2022-09-09T02:05:07;95934.88;;;11.16;100.00
58385;BME280;44185;47.844;8.966;2022-09-09T02:07:39;95936.34;;;11.28;100.00
58385;BME280;44185;47.844;8.966;2022-09-09T02:10:10;95936.06;;;11.31;100.00
58385;BME280;44185;47.844;8.966;2022-09-09T02:12:39;95938.50;;;11.05;100.00
58385;BME280;44185;47.844;8.966;2022-09-09T02:15:12;95951.38;;;10.89;100.00
58385;BME280;44185;47.844;8.966;2022-09-09T02:17:45;95948.47;;;10.83;100.00
58385;BME280;44185;47.844;8.966;2022-09-09T02:20:13;95956.94;;;10.86;100.00
58385;BME280;44185;47.844;8.966;2022-09-09T02:22:41;95965.00;;;11.05;100.00
58385;BME280;44185;47.844;8.966;2022-09-09T02:25:11;95961.91;;;11.09;100.00
58385;BME280;44185;47.844;8.966;2022-09-09T02:27:39;95967.34;;;11.28;100.00
58385;BME280;44185;47.844;8.966;2022-09-09T02:30:07;95956.03;;;11.26;100.00
58385;BME280;44185;47.844;8.966;2022-09-09T02:32:34;95962.84;;;11.28;100.00
58385;BME280;44185;47.844;8.966;2022-09-09T02:35:06;95964.53;;;11.29;100.00
58385;BME280;44185;47.844;8.966;2022-09-09T02:37:38;95967.59;;;11.34;100.00
58385;BME280;44185;47.844;8.966;2022-09-09T02:40:06;95967.44;;;11.36;100.00
58385;BME280;44185;47.844;8.966;2022-09-09T02:42:38;95952.94;;;11.40;100.00
58385;BME280;44185;47.844;8.966;2022-09-09T02:45:05;95951.63;;;11.54;100.00
58385;BME280;44185;47.844;8.966;2022-09-09T02:47:34;95957.53;;;11.38;100.00
58385;BME280;44185;47.844;8.966;2022-09-09T02:50:14;95947.94;;;11.27;100.00
58385;BME280;44185;47.844;8.966;2022-09-09T02:52:52;95948.63;;;11.29;100.00
58385;BME280;44185;47.844;8.966;2022-09-09T02:55:26;95941.16;;;11.15;100.00
58385;BME280;44185;47.844;8.966;2022-09-09T02:57:55;95948.41;;;11.12;100.00
58385;BME280;44185;47.844;8.966;2022-09-09T03:00:25;95952.88;;;11.12;100.00
58385;BME280;44185;47.844;8.966;2022-09-09T03:02:51;95959.81;;;11.13;100.00
58385;BME280;44185;47.844;8.966;2022-09-09T03:05:18;95968.34;;;11.17;100.00
58385;BME280;44185;47.844;8.966;2022-09-09T03:07:44;95964.41;;;11.21;100.00
58385;BME280;44185;47.844;8.966;2022-09-09T03:10:09;95967.34;;;11.28;100.00
58385;BME280;44185;47.844;8.966;2022-09-09T03:12:35;95976.94;;;11.29;100.00
58385;BME280;44185;47.844;8.966;2022-09-09T03:15:00;95991.66;;;11.41;100.00
58385;BME280;44185;47.844;8.966;2022-09-09T03:17:25;95998.50;;;11.54;100.00
58385;BME280;44185;47.844;8.966;2022-09-09T03:19:51;95986.88;;;11.65;100.00
58385;BME280;44185;47.844;8.966;2022-09-09T03:22:18;95988.41;;;11.67;100.00
58385;BME280;44185;47.844;8.966;2022-09-09T03:24:43;95988.94;;;11.71;100.00
58385;BME280;44185;47.844;8.966;2022-09-09T03:27:09;95993.09;;;11.74;100.00
58385;BME280;44185;47.844;8.966;2022-09-09T03:29:34;95985.16;;;11.74;100.00
58385;BME280;44185;47.844;8.966;2022-09-09T03:31:59;95984.34;;;11.63;100.00
58385;BME280;44185;47.844;8.966;2022-09-09T03:34:25;95984.59;;;11.80;100.00
58385;BME280;44185;47.844;8.966;2022-09-09T03:36:50;95979.84;;;11.74;100.00
58385;BME280;44185;47.844;8.966;2022-09-09T03:39:17;95984.72;;;11.78;100.00
58385;BME280;44185;47.844;8.966;2022-09-09T03:41:43;95972.00;;;11.82;100.00
58385;BME280;44185;47.844;8.966;2022-09-09T03:44:08;95962.75;;;11.96;100.00
58385;BME280;44185;47.844;8.966;2022-09-09T03:46:33;95966.13;;;11.88;100.00
58385;BME280;44185;47.844;8.966;2022-09-09T03:48:59;95964.22;;;11.71;100.00
58385;BME280;44185;47.844;8.966;2022-09-09T03:51:24;95967.38;;;11.56;100.00
58385;BME280;44185;47.844;8.966;2022-09-09T03:53:50;95972.84;;;11.54;100.00
58385;BME280;44185;47.844;8.966;2022-09-09T03:56:17;95985.94;;;11.56;100.00
58385;BME280;44185;47.844;8.966;2022-09-09T03:58:42;95981.59;;;11.55;100.00
58385;BME280;44185;47.844;8.966;2022-09-09T04:01:09;95978.22;;;11.63;100.00
58385;BME280;44185;47.844;8.966;2022-09-09T04:03:35;95974.16;;;11.68;100.00
58385;BME280;44185;47.844;8.966;2022-09-09T04:06:02;95987.28;;;11.70;100.00
58385;BME280;44185;47.844;8.966;2022-09-09T04:08:27;95975.78;;;11.79;100.00
58385;BME280;44185;47.844;8.966;2022-09-09T04:10:53;95982.66;;;11.72;100.00
58385;BME280;44185;47.844;8.966;2022-09-09T04:13:21;95996.53;;;11.56;100.00
58385;BME280;44185;47.844;8.966;2022-09-09T04:15:50;95990.25;;;11.57;100.00
58385;BME280;44185;47.844;8.966;2022-09-09T04:18:16;95972.91;;;11.63;100.00
58385;BME280;44185;47.844;8.966;2022-09-09T04:20:41;95983.06;;;11.77;100.00
58385;BME280;44185;47.844;8.966;2022-09-09T04:23:07;95985.44;;;11.81;100.00
58385;BME280;44185;47.844;8.966;2022-09-09T04:25:32;95974.03;;;11.98;100.00
58385;BME280;44185;47.844;8.966;2022-09-09T04:27:58;95970.91;;;12.03;100.00
58385;BME280;44185;47.844;8.966;2022-09-09T04:30:25;95977.06;;;12.04;100.00
58385;BME280;44185;47.844;8.966;2022-09-09T04:32:50;95973.00;;;12.09;100.00
58385;BME280;44185;47.844;8.966;2022-09-09T04:35:16;95967.53;;;12.11;100.00
58385;BME280;44185;47.844;8.966;2022-09-09T04:37:42;95965.72;;;12.11;100.00
58385;BME280;44185;47.844;8.966;2022-09-09T04:40:08;95970.41;;;11.99;100.00
58385;BME280;44185;47.844;8.966;2022-09-09T04:42:34;95972.50;;;11.96;100.00
58385;BME280;44185;47.844;8.966;2022-09-09T04:45:00;95977.41;;;11.90;100.00
58385;BME280;44185;47.844;8.966;2022-09-09T04:47:27;95982.03;;;11.88;100.00
58385;BME280;44185;47.844;8.966;2022-09-09T04:49:52;95986.78;;;11.85;100.00
58385;BME280;44185;47.844;8.966;2022-09-09T04:52:18;95990.00;;;11.88;100.00
58385;BME280;44185;47.844;8.966;2022-09-09T04:54:43;95997.31;;;12.05;100.00
58385;BME280;44185;47.844;8.966;2022-09-09T04:57:10;95998.00;;;12.07;100.00
58385;BME280;44185;47.844;8.966;2022-09-09T04:59:36;95995.47;;;12.15;100.00
58385;BME280;44185;47.844;8.966;2022-09-09T05:02:01;95993.44;;;12.27;100.00
58385;BME280;44185;47.844;8.966;2022-09-09T05:04:28;95997.50;;;12.21;100.00
58385;BME280;44185;47.844;8.966;2022-09-09T05:06:53;95991.22;;;12.22;100.00
58385;BME280;44185;47.844;8.966;2022-09-09T05:09:19;95989.25;;;12.25;100.00
58385;BME280;44185;47.844;8.966;2022-09-09T05:11:44;95985.53;;;12.17;100.00
58385;BME280;44185;47.844;8.966;2022-09-09T05:14:10;95979.56;;;12.15;100.00
58385;BME280;44185;47.844;8.966;2022-09-09T05:16:35;95986.38;;;12.18;100.00
58385;BME280;44185;47.844;8.966;2022-09-09T05:19:01;95982.91;;;12.07;100.00
58385;BME280;44185;47.844;8.966;2022-09-09T05:21:28;95983.34;;;12.02;100.00
58385;BME280;44185;47.844;8.966;2022-09-09T05:23:54;95978.44;;;12.08;100.00
58385;BME280;44185;47.844;8.966;2022-09-09T05:26:21;95984.88;;;12.05;100.00
58385;BME280;44185;47.844;8.966;2022-09-09T05:28:47;95988.75;;;12.11;100.00
58385;BME280;44185;47.844;8.966;2022-09-09T05:31:14;95990.97;;;12.16;100.00
58385;BME280;44185;47.844;8.966;2022-09-09T05:33:41;95999.94;;;12.15;100.00
58385;BME280;44185;47.844;8.966;2022-09-09T05:36:08;95999.88;;;12.25;100.00
58385;BME280;44185;47.844;8.966;2022-09-09T05:38:35;96001.56;;;12.26;100.00
58385;BME280;44185;47.844;8.966;2022-09-09T05:41:01;96002.31;;;12.36;100.00
58385;BME280;44185;47.844;8.966;2022-09-09T05:43:27;96001.84;;;12.22;100.00
58385;BME280;44185;47.844;8.966;2022-09-09T05:45:59;96006.50;;;12.39;100.00
58385;BME280;44185;47.844;8.966;2022-09-09T05:48:27;96006.06;;;12.62;100.00
58385;BME280;44185;47.844;8.966;2022-09-09T05:50:53;96009.41;;;13.27;100.00
58385;BME280;44185;47.844;8.966;2022-09-09T05:53:19;95999.88;;;13.96;100.00
58385;BME280;44185;47.844;8.966;2022-09-09T05:55:46;95999.84;;;14.40;100.00
58385;BME280;44185;47.844;8.966;2022-09-09T05:58:11;96006.72;;;14.76;100.00
58385;BME280;44185;47.844;8.966;2022-09-09T06:00:37;96009.78;;;14.98;100.00
58385;BME280;44185;47.844;8.966;2022-09-09T06:03:03;96013.94;;;15.00;100.00
58385;BME280;44185;47.844;8.966;2022-09-09T06:05:28;96012.06;;;14.59;100.00
58385;BME280;44185;47.844;8.966;2022-09-09T06:07:54;96017.66;;;13.96;100.00
58385;BME280;44185;47.844;8.966;2022-09-09T06:10:19;96021.69;;;13.73;100.00
58385;BME280;44185;47.844;8.966;2022-09-09T06:12:46;96022.28;;;13.85;100.00
58385;BME280;44185;47.844;8.966;2022-09-09T06:15:12;96017.38;;;14.07;100.00
58385;BME280;44185;47.844;8.966;2022-09-09T06:17:37;96024.84;;;14.55;100.00
58385;BME280;44185;47.844;8.966;2022-09-09T06:20:03;96020.88;;;14.60;100.00
58385;BME280;44185;47.844;8.966;2022-09-09T06:22:28;96023.53;;;14.60;100.00
58385;BME280;44185;47.844;8.966;2022-09-09T06:24:54;96029.19;;;14.56;100.00
58385;BME280;44185;47.844;8.966;2022-09-09T06:27:19;96030.09;;;14.90;100.00
58385;BME280;44185;47.844;8.966;2022-09-09T06:29:47;96027.72;;;14.79;100.00
58385;BME280;44185;47.844;8.966;2022-09-09T06:32:12;96019.16;;;14.42;100.00
58385;BME280;44185;47.844;8.966;2022-09-09T06:34:38;96021.72;;;14.77;100.00
58385;BME280;44185;47.844;8.966;2022-09-09T06:37:03;96015.59;;;15.18;100.00
58385;BME280;44185;47.844;8.966;2022-09-09T06:39:28;96012.63;;;15.21;100.00
58385;BME280;44185;47.844;8.966;2022-09-09T06:41:54;96015.28;;;15.38;100.00
58385;BME280;44185;47.844;8.966;2022-09-09T06:44:19;96026.28;;;15.35;100.00
58385;BME280;44185;47.844;8.966;2022-09-09T06:46:46;96014.63;;;15.19;100.00
58385;BME280;44185;47.844;8.966;2022-09-09T06:49:12;96014.78;;;15.09;100.00
58385;BME280;44185;47.844;8.966;2022-09-09T06:51:37;96021.78;;;14.94;100.00
58385;BME280;44185;47.844;8.966;2022-09-09T06:54:03;96021.56;;;14.78;100.00
58385;BME280;44185;47.844;8.966;2022-09-09T06:56:31;96032.66;;;14.49;100.00
58385;BME280;44185;47.844;8.966;2022-09-09T06:58:58;96030.34;;;14.54;100.00
58385;BME280;44185;47.844;8.966;2022-09-09T07:01:26;96021.31;;;14.38;100.00
58385;BME280;44185;47.844;8.966;2022-09-09T07:03:54;96030.13;;;14.39;100.00
58385;BME280;44185;47.844;8.966;2022-09-09T07:06:23;96031.81;;;14.48;100.00
58385;BME280;44185;47.844;8.966;2022-09-09T07:08:50;96034.84;;;14.53;100.00
58385;BME280;44185;47.844;8.966;2022-09-09T07:11:16;96033.31;;;14.42;100.00
58385;BME280;44185;47.844;8.966;2022-09-09T07:13:42;96042.91;;;14.95;100.00
58385;BME280;44185;47.844;8.966;2022-09-09T07:16:09;96039.59;;;15.18;100.00
58385;BME280;44185;47.844;8.966;2022-09-09T07:18:35;96039.78;;;15.25;100.00
58385;BME280;44185;47.844;8.966;2022-09-09T07:21:03;96040.56;;;15.76;100.00
58385;BME280;44185;47.844;8.966;2022-09-09T07:23:29;96047.97;;;16.14;100.00
58385;BME280;44185;47.844;8.966;2022-09-09T07:25:55;96043.81;;;16.11;100.00
58385;BME280;44185;47.844;8.966;2022-09-09T07:28:21;96037.19;;;15.82;100.00
58385;BME280;44185;47.844;8.966;2022-09-09T07:30:53;96040.25;;;15.54;100.00
58385;BME280;44185;47.844;8.966;2022-09-09T07:33:18;96027.19;;;16.33;100.00
58385;BME280;44185;47.844;8.966;2022-09-09T07:35:44;96032.78;;;16.55;100.00
58385;BME280;44185;47.844;8.966;2022-09-09T07:38:11;96027.94;;;16.59;100.00
58385;BME280;44185;47.844;8.966;2022-09-09T07:40:36;96033.94;;;16.84;100.00
58385;BME280;44185;47.844;8.966;2022-09-09T07:43:02;96033.28;;;16.82;99.62
58385;BME280;44185;47.844;8.966;2022-09-09T07:45:27;96035.28;;;16.80;99.82
58385;BME280;44185;47.844;8.966;2022-09-09T07:47:52;96034.84;;;17.00;99.61
58385;BME280;44185;47.844;8.966;2022-09-09T07:50:18;96038.47;;;17.31;94.53
58385;BME280;44185;47.844;8.966;2022-09-09T07:52:43;96033.75;;;17.09;96.98
58385;BME280;44185;47.844;8.966;2022-09-09T07:55:10;96033.41;;;17.12;95.86
58385;BME280;44185;47.844;8.966;2022-09-09T07:57:36;96018.50;;;16.95;96.56
58385;BME280;44185;47.844;8.966;2022-09-09T08:00:02;96036.41;;;17.09;96.11
58385;BME280;44185;47.844;8.966;2022-09-09T08:02:28;96032.81;;;17.02;97.78
58385;BME280;44185;47.844;8.966;2022-09-09T08:04:54;96035.84;;;16.99;97.40
58385;BME280;44185;47.844;8.966;2022-09-09T08:07:19;96037.22;;;17.18;95.45
58385;BME280;44185;47.844;8.966;2022-09-09T08:09:44;96039.28;;;17.08;95.09
58385;BME280;44185;47.844;8.966;2022-09-09T08:12:11;96037.00;;;16.96;96.07
58385;BME280;44185;47.844;8.966;2022-09-09T08:14:37;96040.31;;;16.75;96.65
58385;BME280;44185;47.844;8.966;2022-09-09T08:17:02;96044.38;;;16.71;97.59
58385;BME280;44185;47.844;8.966;2022-09-09T08:19:28;96041.09;;;16.60;99.39
58385;BME280;44185;47.844;8.966;2022-09-09T08:21:53;96044.72;;;16.67;100.00
58385;BME280;44185;47.844;8.966;2022-09-09T08:24:19;96046.78;;;16.57;97.56
58385;BME280;44185;47.844;8.966;2022-09-09T08:26:45;96048.88;;;16.70;100.00
58385;BME280;44185;47.844;8.966;2022-09-09T08:29:13;96053.03;;;16.73;98.53
58385;BME280;44185;47.844;8.966;2022-09-09T08:31:40;96059.00;;;17.07;97.86
58385;BME280;44185;47.844;8.966;2022-09-09T08:34:07;96052.75;;;16.91;97.99
58385;BME280;44185;47.844;8.966;2022-09-09T08:36:34;96055.03;;;17.03;99.17
58385;BME280;44185;47.844;8.966;2022-09-09T08:39:01;96047.47;;;16.83;98.58
58385;BME280;44185;47.844;8.966;2022-09-09T08:41:38;96045.63;;;17.07;97.17
58385;BME280;44185;47.844;8.966;2022-09-09T08:44:07;96040.72;;;16.95;97.56
58385;BME280;44185;47.844;8.966;2022-09-09T08:46:44;96029.97;;;17.04;97.41
58385;BME280;44185;47.844;8.966;2022-09-09T08:49:23;96045.00;;;17.28;97.11
58385;BME280;44185;47.844;8.966;2022-09-09T08:51:54;96040.22;;;17.15;98.96
58385;BME280;44185;47.844;8.966;2022-09-09T08:54:22;96044.66;;;17.31;96.18
58385;BME280;44185;47.844;8.966;2022-09-09T08:56:48;96043.81;;;17.31;90.12
58385;BME280;44185;47.844;8.966;2022-09-09T08:59:17;96045.00;;;17.67;94.98
58385;BME280;44185;47.844;8.966;2022-09-09T09:02:00;96042.13;;;17.68;88.67
58385;BME280;44185;47.844;8.966;2022-09-09T09:04:44;96038.19;;;17.79;88.62
58385;BME280;44185;47.844;8.966;2022-09-09T09:07:21;96043.53;;;17.79;84.70
58385;BME280;44185;47.844;8.966;2022-09-09T09:09:57;96037.06;;;17.89;87.51
58385;BME280;44185;47.844;8.966;2022-09-09T09:12:30;96028.88;;;17.75;81.61
58385;BME280;44185;47.844;8.966;2022-09-09T09:15:00;96039.38;;;17.92;86.30
58385;BME280;44185;47.844;8.966;2022-09-09T09:17:28;96027.41;;;17.88;84.85
58385;BME280;44185;47.844;8.966;2022-09-09T09:19:55;96036.06;;;17.75;88.84
58385;BME280;44185;47.844;8.966;2022-09-09T09:22:22;96038.28;;;17.86;83.88
58385;BME280;44185;47.844;8.966;2022-09-09T09:24:51;96032.00;;;17.79;84.10
58385;BME280;44185;47.844;8.966;2022-09-09T09:27:18;96035.06;;;17.91;85.11
58385;BME280;44185;47.844;8.966;2022-09-09T09:29:48;96035.13;;;18.13;85.51
58385;BME280;44185;47.844;8.966;2022-09-09T09:32:18;96028.59;;;18.00;82.67
58385;BME280;44185;47.844;8.966;2022-09-09T09:34:49;96020.19;;;18.04;85.27
58385;BME280;44185;47.844;8.966;2022-09-09T09:37:20;96025.81;;;18.09;85.39
58385;BME280;44185;47.844;8.966;2022-09-09T09:39:48;96028.31;;;17.95;83.31
58385;BME280;44185;47.844;8.966;2022-09-09T09:42:16;96041.69;;;17.95;80.29
58385;BME280;44185;47.844;8.966;2022-09-09T09:44:42;96035.16;;;17.83;84.38
58385;BME280;44185;47.844;8.966;2022-09-09T09:47:11;96030.72;;;17.90;84.67
58385;BME280;44185;47.844;8.966;2022-09-09T09:49:37;96033.19;;;17.76;83.54
58385;BME280;44185;47.844;8.966;2022-09-09T09:52:05;96029.03;;;17.59;84.17
58385;BME280;44185;47.844;8.966;2022-09-09T09:54:33;96032.19;;;17.77;83.77
58385;BME280;44185;47.844;8.966;2022-09-09T09:57:09;96032.56;;;17.89;82.81
58385;BME280;44185;47.844;8.966;2022-09-09T09:59:36;96031.72;;;17.89;81.89
58385;BME280;44185;47.844;8.966;2022-09-09T10:02:15;96031.28;;;17.70;79.53
58385;BME280;44185;47.844;8.966;2022-09-09T10:04:41;96024.88;;;17.56;79.78
58385;BME280;44185;47.844;8.966;2022-09-09T10:07:11;96025.94;;;17.47;79.80
58385;BME280;44185;47.844;8.966;2022-09-09T10:09:37;96034.16;;;17.45;79.87
58385;BME280;44185;47.844;8.966;2022-09-09T10:12:11;96031.59;;;17.52;81.50
58385;BME280;44185;47.844;8.966;2022-09-09T10:14:47;96035.09;;;17.52;82.25
58385;BME280;44185;47.844;8.966;2022-09-09T10:17:22;96029.88;;;17.74;79.30
58385;BME280;44185;47.844;8.966;2022-09-09T10:20:04;96016.31;;;18.06;78.46
58385;BME280;44185;47.844;8.966;2022-09-09T10:22:39;96017.69;;;18.32;76.36
58385;BME280;44185;47.844;8.966;2022-09-09T10:25:25;96012.31;;;18.48;72.03
58385;BME280;44185;47.844;8.966;2022-09-09T10:28:06;96009.47;;;18.71;74.49
58385;BME280;44185;47.844;8.966;2022-09-09T10:30:41;96017.00;;;18.61;74.67
58385;BME280;44185;47.844;8.966;2022-09-09T10:33:16;96007.75;;;18.63;70.94
58385;BME280;44185;47.844;8.966;2022-09-09T10:35:53;96010.94;;;18.37;70.73
58385;BME280;44185;47.844;8.966;2022-09-09T10:38:28;96008.78;;;18.62;72.86
58385;BME280;44185;47.844;8.966;2022-09-09T10:41:05;96002.97;;;18.81;72.38
58385;BME280;44185;47.844;8.966;2022-09-09T10:44:05;95996.88;;;18.87;71.38
58385;BME280;44185;47.844;8.966;2022-09-09T10:46:39;95989.50;;;18.96;69.48
58385;BME280;44185;47.844;8.966;2022-09-09T10:49:16;96004.22;;;19.00;70.23
58385;BME280;44185;47.844;8.966;2022-09-09T10:51:51;96000.88;;;18.98;68.24
58385;BME280;44185;47.844;8.966;2022-09-09T10:54:31;96003.59;;;18.61;63.46
58385;BME280;44185;47.844;8.966;2022-09-09T10:57:04;96004.72;;;18.51;63.99
58385;BME280;44185;47.844;8.966;2022-09-09T10:59:33;96008.09;;;18.38;64.27
58385;BME280;44185;47.844;8.966;2022-09-09T11:02:05;96012.03;;;18.42;65.72
58385;BME280;44185;47.844;8.966;2022-09-09T11:04:41;96011.09;;;18.50;65.98
58385;BME280;44185;47.844;8.966;2022-09-09T11:07:11;96010.88;;;18.67;64.80
58385;BME280;44185;47.844;8.966;2022-09-09T11:09:42;96011.41;;;18.77;67.02
58385;BME280;44185;47.844;8.966;2022-09-09T11:12:15;96009.94;;;18.75;66.10
58385;BME280;44185;47.844;8.966;2022-09-09T11:14:45;96003.84;;;18.44;64.60
58385;BME280;44185;47.844;8.966;2022-09-09T11:17:16;96006.91;;;18.26;65.69
58385;BME280;44185;47.844;8.966;2022-09-09T11:19:43;96008.25;;;18.37;64.55
58385;BME280;44185;47.844;8.966;2022-09-09T11:22:17;96011.34;;;18.33;65.26
58385;BME280;44185;47.844;8.966;2022-09-09T11:24:47;96010.13;;;18.36;64.51
58385;BME280;44185;47.844;8.966;2022-09-09T11:27:16;95998.38;;;18.37;66.60
58385;BME280;44185;47.844;8.966;2022-09-09T11:30:10;95994.34;;;18.26;66.01
58385;BME280;44185;47.844;8.966;2022-09-09T11:32:53;95995.28;;;18.33;67.06
58385;BME280;44185;47.844;8.966;2022-09-09T11:35:30;95993.56;;;18.48;67.64
58385;BME280;44185;47.844;8.966;2022-09-09T11:38:16;95982.88;;;18.32;66.20
58385;BME280;44185;47.844;8.966;2022-09-09T11:40:45;95985.78;;;18.53;63.56
58385;BME280;44185;47.844;8.966;2022-09-09T11:43:12;95984.44;;;18.79;66.98
58385;BME280;44185;47.844;8.966;2022-09-09T11:45:39;95986.66;;;18.75;63.89
58385;BME280;44185;47.844;8.966;2022-09-09T11:48:23;95986.69;;;18.82;63.88
58385;BME280;44185;47.844;8.966;2022-09-09T11:50:58;95972.22;;;18.98;64.80
58385;BME280;44185;47.844;8.966;2022-09-09T11:53:23;95982.50;;;18.95;64.78
58385;BME280;44185;47.844;8.966;2022-09-09T11:56:02;95974.50;;;19.01;63.58
58385;BME280;44185;47.844;8.966;2022-09-09T11:58:34;95976.19;;;19.03;64.85
58385;BME280;44185;47.844;8.966;2022-09-09T12:01:13;95971.88;;;19.08;62.17
58385;BME280;44185;47.844;8.966;2022-09-09T12:03:41;95976.44;;;19.08;60.32
58385;BME280;44185;47.844;8.966;2022-09-09T12:06:14;95960.34;;;19.08;61.94
58385;BME280;44185;47.844;8.966;2022-09-09T12:08:43;95964.38;;;19.19;62.17
58385;BME280;44185;47.844;8.966;2022-09-09T12:11:10;95959.50;;;19.29;63.56
58385;BME280;44185;47.844;8.966;2022-09-09T12:13:36;95965.13;;;19.34;63.83
58385;BME280;44185;47.844;8.966;2022-09-09T12:16:01;95965.50;;;19.31;61.20
58385;BME280;44185;47.844;8.966;2022-09-09T12:18:35;95967.81;;;19.34;63.54
58385;BME280;44185;47.844;8.966;2022-09-09T12:21:06;95967.16;;;19.10;62.14
58385;BME280;44185;47.844;8.966;2022-09-09T12:23:40;95975.34;;;19.24;63.31
58385;BME280;44185;47.844;8.966;2022-09-09T12:26:27;95965.44;;;19.25;62.67
58385;BME280;44185;47.844;8.966;2022-09-09T12:29:05;95969.41;;;19.29;62.56
58385;BME280;44185;47.844;8.966;2022-09-09T12:31:41;95960.38;;;19.37;64.12
58385;BME280;44185;47.844;8.966;2022-09-09T12:34:10;95959.25;;;19.53;62.63
58385;BME280;44185;47.844;8.966;2022-09-09T12:36:37;95951.91;;;19.69;63.71
58385;BME280;44185;47.844;8.966;2022-09-09T12:39:10;95953.59;;;19.76;63.85
58385;BME280;44185;47.844;8.966;2022-09-09T12:41:50;95948.19;;;19.70;64.05
58385;BME280;44185;47.844;8.966;2022-09-09T12:44:16;95949.88;;;19.77;62.90
58385;BME280;44185;47.844;8.966;2022-09-09T12:46:43;95947.16;;;19.71;62.76
58385;BME280;44185;47.844;8.966;2022-09-09T12:49:26;95946.16;;;19.43;62.92
58385;BME280;44185;47.844;8.966;2022-09-09T12:51:52;95930.31;;;19.48;63.38
58385;BME280;44185;47.844;8.966;2022-09-09T12:54:19;95932.09;;;19.70;62.99
58385;BME280;44185;47.844;8.966;2022-09-09T12:56:47;95937.28;;;19.71;63.24
58385;BME280;44185;47.844;8.966;2022-09-09T12:59:22;95927.09;;;19.60;63.59
58385;BME280;44185;47.844;8.966;2022-09-09T13:01:55;95927.06;;;19.53;62.37
58385;BME280;44185;47.844;8.966;2022-09-09T13:04:21;95924.88;;;19.70;63.70
58385;BME280;44185;47.844;8.966;2022-09-09T13:06:46;95925.16;;;19.82;64.98
58385;BME280;44185;47.844;8.966;2022-09-09T13:09:12;95913.75;;;19.73;59.37
58385;BME280;44185;47.844;8.966;2022-09-09T13:11:40;95924.84;;;19.63;59.67